createdAt,value
2022-07-29T00:01:43.869Z,16.90
2022-07-29T00:04:12.136Z,16.80
2022-07-29T00:06:42.465Z,16.90
2022-07-29T00:09:10.686Z,16.90
2022-07-29T00:11:39.132Z,16.80
2022-07-29T00:14:07.354Z,16.80
2022-07-29T00:16:35.577Z,16.80
2022-07-29T00:19:03.786Z,16.80
2022-07-29T00:21:32.027Z,16.80
2022-07-29T00:24:01.566Z,16.80
2022-07-29T00:26:32.696Z,16.80
2022-07-29T00:29:31.865Z,16.80
2022-07-29T00:31:49.364Z,16.80
2022-07-29T00:34:31.399Z,16.90
2022-07-29T00:36:59.741Z,17.10
2022-07-29T00:39:29.217Z,17.20
2022-07-29T00:41:57.256Z,17.40
2022-07-29T00:44:25.297Z,17.50
2022-07-29T00:46:53.499Z,17.70
2022-07-29T00:49:21.601Z,17.70
2022-07-29T00:51:51.490Z,17.90
2022-07-29T00:54:19.866Z,18.00
2022-07-29T00:56:49.351Z,18.10
2022-07-29T00:59:17.477Z,18.20
2022-07-29T01:01:45.612Z,18.30
2022-07-29T01:04:14.063Z,18.30
2022-07-29T01:06:42.896Z,18.40
2022-07-29T01:09:11.987Z,18.40
2022-07-29T01:11:41.069Z,18.50
2022-07-29T01:14:12.324Z,18.60
2022-07-29T01:16:46.221Z,18.60
2022-07-29T01:19:35.162Z,18.70
2022-07-29T01:22:20.569Z,18.70
2022-07-29T01:25:12.222Z,18.70
2022-07-29T01:28:02.048Z,18.70
2022-07-29T01:30:32.890Z,18.80
2022-07-29T01:33:08.144Z,18.80
2022-07-29T01:35:38.678Z,18.80
2022-07-29T01:38:10.643Z,18.70
2022-07-29T01:40:43.562Z,18.80
2022-07-29T01:43:14.998Z,18.80
2022-07-29T01:45:48.804Z,18.80
2022-07-29T01:48:21.980Z,18.80
2022-07-29T01:50:54.032Z,18.80
2022-07-29T01:53:28.876Z,18.80
2022-07-29T01:56:07.106Z,18.80
2022-07-29T01:58:37.129Z,18.80
2022-07-29T02:01:07.346Z,18.80
2022-07-29T02:03:37.768Z,18.80
2022-07-29T02:06:08.520Z,18.70
2022-07-29T02:08:38.519Z,18.70
2022-07-29T02:11:07.320Z,18.70
2022-07-29T02:13:38.379Z,18.60
2022-07-29T02:16:11.362Z,18.50
2022-07-29T02:18:42.903Z,18.50
2022-07-29T02:21:15.029Z,18.40
2022-07-29T02:23:51.373Z,18.30
2022-07-29T02:26:21.391Z,18.30
2022-07-29T02:28:51.399Z,18.30
2022-07-29T02:31:24.073Z,18.30
2022-07-29T02:33:53.872Z,18.30
2022-07-29T02:36:24.818Z,18.30
2022-07-29T02:38:58.348Z,18.20
2022-07-29T02:41:30.599Z,18.30
2022-07-29T02:44:03.931Z,18.30
2022-07-29T02:46:36.660Z,18.20
2022-07-29T02:49:12.279Z,18.30
2022-07-29T02:51:45.655Z,18.30
2022-07-29T02:54:35.879Z,18.30
2022-07-29T02:57:11.467Z,18.30
2022-07-29T02:59:42.249Z,18.20
2022-07-29T03:02:13.743Z,18.20
2022-07-29T03:04:43.799Z,18.20
2022-07-29T03:07:15.188Z,18.20
2022-07-29T03:09:44.846Z,18.10
2022-07-29T03:12:13.421Z,18.10
2022-07-29T03:14:41.914Z,18.00
2022-07-29T03:17:12.089Z,18.00
2022-07-29T03:19:41.033Z,18.10
2022-07-29T03:22:09.722Z,18.00
2022-07-29T03:24:38.917Z,18.00
2022-07-29T03:27:07.379Z,18.00
2022-07-29T03:29:35.692Z,17.90
2022-07-29T03:32:07.533Z,17.90
2022-07-29T03:34:39.460Z,17.90
2022-07-29T03:37:08.292Z,17.90
2022-07-29T03:39:42.562Z,17.80
2022-07-29T03:42:15.044Z,17.80
2022-07-29T03:44:45.659Z,17.70
2022-07-29T03:47:16.158Z,17.70
2022-07-29T03:49:48.565Z,17.70
2022-07-29T03:52:16.890Z,17.70
2022-07-29T03:54:45.192Z,17.70
2022-07-29T03:57:14.345Z,17.80
2022-07-29T03:59:43.740Z,17.80
2022-07-29T04:02:14.830Z,17.90
2022-07-29T04:04:46.118Z,17.90
2022-07-29T04:07:14.916Z,17.90
2022-07-29T04:09:42.953Z,17.90
2022-07-29T04:12:11.868Z,17.90
2022-07-29T04:14:41.118Z,17.90
2022-07-29T04:17:09.354Z,18.00
2022-07-29T04:19:37.472Z,18.00
2022-07-29T04:22:06.948Z,18.00
2022-07-29T04:24:35.007Z,18.00
2022-07-29T04:27:03.109Z,18.00
2022-07-29T04:29:31.208Z,18.10
2022-07-29T04:31:59.268Z,18.10
2022-07-29T04:34:27.928Z,18.20
2022-07-29T04:36:56.520Z,18.20
2022-07-29T04:39:25.994Z,18.30
2022-07-29T04:41:58.024Z,18.30
2022-07-29T04:44:28.911Z,18.30
2022-07-29T04:46:58.296Z,18.30
2022-07-29T04:49:26.646Z,18.30
2022-07-29T04:51:54.776Z,18.30
2022-07-29T04:54:22.802Z,18.30
2022-07-29T04:56:52.241Z,18.30
2022-07-29T04:59:20.331Z,18.30
2022-07-29T05:01:48.516Z,18.30
2022-07-29T05:04:17.041Z,18.30
2022-07-29T05:06:45.463Z,18.30
2022-07-29T05:09:13.498Z,18.30
2022-07-29T05:11:41.547Z,18.40
2022-07-29T05:14:11.017Z,18.40
2022-07-29T05:16:40.161Z,18.40
2022-07-29T05:19:12.267Z,18.40
2022-07-29T05:21:42.235Z,18.40
2022-07-29T05:24:10.497Z,18.50
2022-07-29T05:26:38.592Z,18.50
2022-07-29T05:29:06.715Z,18.50
2022-07-29T05:31:36.220Z,18.50
2022-07-29T05:34:04.406Z,18.50
2022-07-29T05:36:32.475Z,18.60
2022-07-29T05:39:00.510Z,18.60
2022-07-29T05:41:28.732Z,18.60
2022-07-29T05:43:56.808Z,18.60
2022-07-29T05:46:25.039Z,18.60
2022-07-29T05:48:54.564Z,18.60
2022-07-29T05:51:22.670Z,18.70
2022-07-29T05:53:50.756Z,18.70
2022-07-29T05:56:18.836Z,18.70
2022-07-29T05:58:46.983Z,18.70
2022-07-29T06:01:15.230Z,18.80
2022-07-29T06:03:44.081Z,18.80
2022-07-29T06:06:13.858Z,18.90
2022-07-29T06:08:42.442Z,18.90
2022-07-29T06:11:10.638Z,18.90
2022-07-29T06:13:41.815Z,19.00
2022-07-29T06:16:10.059Z,19.00
2022-07-29T06:18:44.250Z,19.00
2022-07-29T06:21:13.927Z,19.10
2022-07-29T06:23:42.556Z,19.10
2022-07-29T06:26:10.823Z,19.20
2022-07-29T06:28:39.044Z,19.20
2022-07-29T06:31:08.053Z,19.20
2022-07-29T06:33:38.486Z,19.30
2022-07-29T06:36:07.298Z,19.30
2022-07-29T06:38:40.596Z,19.30
2022-07-29T06:41:16.867Z,19.40
2022-07-29T06:43:51.959Z,19.40
2022-07-29T06:46:23.897Z,19.40
2022-07-29T06:48:53.131Z,19.40
2022-07-29T06:51:23.089Z,19.40
2022-07-29T06:53:59.957Z,19.40
2022-07-29T06:56:31.819Z,19.40
2022-07-29T06:59:00.116Z,19.30
2022-07-29T07:01:29.854Z,19.30
2022-07-29T07:03:58.481Z,19.30
2022-07-29T07:06:26.567Z,19.30
2022-07-29T07:08:56.139Z,19.40
2022-07-29T07:11:24.215Z,19.50
2022-07-29T07:13:52.293Z,19.50
2022-07-29T07:16:20.545Z,19.60
2022-07-29T07:18:48.694Z,19.60
2022-07-29T07:21:18.920Z,19.60
2022-07-29T07:23:47.660Z,19.50
2022-07-29T07:26:17.908Z,19.50
2022-07-29T07:28:46.040Z,19.40
2022-07-29T07:31:15.186Z,19.30
2022-07-29T07:33:43.319Z,19.30
2022-07-29T07:36:11.434Z,19.30
2022-07-29T07:38:39.474Z,19.20
2022-07-29T07:41:07.554Z,19.20
2022-07-29T07:43:40.847Z,19.10
2022-07-29T07:46:09.169Z,19.10
2022-07-29T07:48:37.340Z,19.10
2022-07-29T07:51:05.612Z,19.00
2022-07-29T07:53:33.725Z,19.10
2022-07-29T07:56:11.300Z,19.10
2022-07-29T07:58:41.631Z,19.20
2022-07-29T08:01:09.880Z,19.40
2022-07-29T08:03:38.428Z,19.40
2022-07-29T08:06:07.158Z,19.50
2022-07-29T08:08:35.289Z,19.70
2022-07-29T08:11:09.010Z,19.70
2022-07-29T08:13:39.019Z,19.80
2022-07-29T08:16:13.973Z,19.90
2022-07-29T08:18:45.319Z,19.90
2022-07-29T08:21:15.128Z,20.00
2022-07-29T08:23:56.160Z,20.10
2022-07-29T08:26:27.986Z,20.20
2022-07-29T08:28:56.099Z,20.20
2022-07-29T08:31:25.648Z,20.20
2022-07-29T08:33:53.857Z,20.20
2022-07-29T08:36:22.974Z,20.20
2022-07-29T08:38:52.088Z,20.10
2022-07-29T08:41:21.269Z,20.00
2022-07-29T08:43:49.475Z,20.00
2022-07-29T08:46:18.413Z,20.00
2022-07-29T08:48:48.505Z,20.00
2022-07-29T08:51:18.409Z,20.10
2022-07-29T08:53:49.287Z,20.30
2022-07-29T08:56:19.069Z,20.60
2022-07-29T08:58:51.748Z,21.20
2022-07-29T09:01:36.353Z,22.40
2022-07-29T09:04:13.892Z,23.70
2022-07-29T09:06:46.437Z,24.90
2022-07-29T09:09:15.710Z,25.80
2022-07-29T09:11:44.580Z,26.40
2022-07-29T09:14:14.445Z,26.40
2022-07-29T09:16:54.997Z,25.90
2022-07-29T09:19:29.343Z,25.50
2022-07-29T09:22:03.316Z,25.10
2022-07-29T09:24:45.553Z,24.70
2022-07-29T09:27:21.677Z,24.50
2022-07-29T09:29:57.521Z,24.50
2022-07-29T09:32:27.176Z,24.40
2022-07-29T09:35:16.640Z,24.20
2022-07-29T09:37:44.954Z,24.10
2022-07-29T09:40:18.021Z,23.90
2022-07-29T09:42:46.460Z,23.90
2022-07-29T09:45:15.289Z,23.90
2022-07-29T09:47:47.855Z,23.90
2022-07-29T09:50:20.679Z,24.30
2022-07-29T09:52:50.642Z,25.10
2022-07-29T09:55:19.954Z,26.30
2022-07-29T09:57:48.999Z,27.70
2022-07-29T10:00:19.740Z,28.90
2022-07-29T10:02:49.205Z,29.80
2022-07-29T10:05:23.905Z,30.30
2022-07-29T10:07:57.555Z,30.90
2022-07-29T10:10:28.109Z,31.10
2022-07-29T10:13:01.813Z,31.60
2022-07-29T10:15:38.155Z,32.10
2022-07-29T10:18:06.865Z,32.00
2022-07-29T10:20:36.840Z,31.90
2022-07-29T10:23:05.461Z,32.40
2022-07-29T10:25:33.897Z,32.50
2022-07-29T10:28:01.993Z,32.40
2022-07-29T10:30:30.124Z,31.70
2022-07-29T10:33:23.723Z,31.30
2022-07-29T10:36:07.118Z,30.60
2022-07-29T10:38:46.037Z,30.20
2022-07-29T10:41:53.075Z,29.60
2022-07-29T10:44:23.842Z,29.10
2022-07-29T10:46:52.946Z,28.60
2022-07-29T10:49:25.025Z,28.40
2022-07-29T10:51:57.219Z,28.70
2022-07-29T10:55:01.271Z,29.10
2022-07-29T10:57:53.341Z,29.40
2022-07-29T11:00:33.013Z,30.30
2022-07-29T11:03:04.639Z,31.00
2022-07-29T11:05:59.606Z,31.30
2022-07-29T11:08:31.766Z,32.20
2022-07-29T11:15:00.190Z,31.50
2022-07-29T11:17:37.542Z,30.00
2022-07-29T11:20:37.814Z,29.30
2022-07-29T11:23:21.729Z,28.60
2022-07-29T11:26:18.941Z,28.20
2022-07-29T11:28:53.888Z,27.90
2022-07-29T11:31:35.892Z,27.70
2022-07-29T11:34:36.445Z,27.90
2022-07-29T11:37:28.299Z,29.20
2022-07-29T11:40:18.420Z,30.00
2022-07-29T11:42:52.399Z,30.80
2022-07-29T11:45:42.848Z,31.90
2022-07-29T11:51:13.292Z,34.10
2022-07-29T11:53:41.583Z,34.80
2022-07-29T11:56:11.412Z,34.90
2022-07-29T11:58:47.418Z,34.60
2022-07-29T12:01:16.265Z,34.20
2022-07-29T12:03:44.862Z,33.70
2022-07-29T12:06:18.004Z,33.30
2022-07-29T12:07:03.374Z,32.90
2022-07-29T12:08:47.442Z,33.40
2022-07-29T12:11:20.794Z,33.80
2022-07-29T12:13:52.344Z,34.10
2022-07-29T12:16:26.068Z,33.80
2022-07-29T12:18:59.518Z,34.40
2022-07-29T12:21:28.891Z,35.20
2022-07-29T12:24:05.465Z,35.60
2022-07-29T12:26:36.873Z,35.30
2022-07-29T12:29:11.438Z,34.80
2022-07-29T12:31:45.561Z,34.30
2022-07-29T12:34:14.461Z,33.50
2022-07-29T12:36:43.736Z,33.50
2022-07-29T12:39:14.871Z,33.50
2022-07-29T12:41:43.055Z,33.50
2022-07-29T12:44:12.707Z,33.20
2022-07-29T12:46:40.817Z,32.90
2022-07-29T12:49:09.174Z,32.60
2022-07-29T12:51:41.373Z,32.50
2022-07-29T12:54:12.187Z,32.00
2022-07-29T12:56:43.515Z,31.50
2022-07-29T12:59:19.616Z,31.30
2022-07-29T13:01:50.266Z,31.20
2022-07-29T13:04:28.797Z,30.80
2022-07-29T13:07:04.538Z,30.30
2022-07-29T13:09:40.449Z,30.00
2022-07-29T13:12:10.927Z,29.70
2022-07-29T13:14:42.016Z,29.40
2022-07-29T13:17:12.230Z,29.30
2022-07-29T13:19:42.405Z,29.30
2022-07-29T13:22:11.309Z,30.00
2022-07-29T13:24:53.305Z,31.20
2022-07-29T13:27:23.436Z,32.20
2022-07-29T13:29:53.462Z,32.90
2022-07-29T13:32:27.958Z,33.70
2022-07-29T13:34:57.559Z,34.00
2022-07-29T13:37:25.766Z,34.10
2022-07-29T13:39:55.114Z,34.40
2022-07-29T13:42:23.235Z,34.60
2022-07-29T13:44:53.085Z,34.90
2022-07-29T13:47:21.564Z,34.80
2022-07-29T13:49:49.997Z,33.80
2022-07-29T13:52:18.366Z,33.00
2022-07-29T13:54:46.560Z,32.00
2022-07-29T13:57:15.184Z,31.10
2022-07-29T13:59:44.470Z,31.00
2022-07-29T14:02:15.723Z,31.10
2022-07-29T14:04:43.876Z,31.70
2022-07-29T14:07:12.090Z,32.10
2022-07-29T14:09:44.642Z,32.40
2022-07-29T14:12:13.086Z,32.10
2022-07-29T14:14:42.427Z,31.50
2022-07-29T14:17:11.195Z,30.80
2022-07-29T14:19:40.632Z,30.30
2022-07-29T14:22:10.696Z,29.90
2022-07-29T14:24:39.616Z,29.40
2022-07-29T14:27:08.513Z,29.20
2022-07-29T14:29:38.211Z,29.30
2022-07-29T14:32:07.607Z,29.70
2022-07-29T14:34:36.052Z,30.50
2022-07-29T14:37:07.265Z,31.20
2022-07-29T14:39:42.613Z,31.50
2022-07-29T14:42:12.604Z,31.70
2022-07-29T14:44:42.269Z,32.20
2022-07-29T14:47:11.200Z,32.50
2022-07-29T14:49:39.197Z,32.80
2022-07-29T14:52:08.647Z,32.80
2022-07-29T14:54:36.688Z,32.50
2022-07-29T14:57:04.833Z,32.00
2022-07-29T14:59:32.950Z,31.40
2022-07-29T15:02:01.559Z,31.20
2022-07-29T15:04:30.006Z,31.10
2022-07-29T15:07:00.174Z,30.60
2022-07-29T15:09:29.709Z,30.20
2022-07-29T15:11:58.232Z,30.10
2022-07-29T15:14:26.452Z,29.80
2022-07-29T15:16:54.574Z,29.40
2022-07-29T15:19:22.664Z,29.10
2022-07-29T15:21:50.704Z,29.00
2022-07-29T15:24:19.270Z,28.90
2022-07-29T15:26:49.268Z,28.70
2022-07-29T15:29:19.375Z,28.40
2022-07-29T15:31:47.485Z,28.10
2022-07-29T15:34:15.646Z,27.80
2022-07-29T15:36:52.872Z,27.60
2022-07-29T15:39:21.500Z,27.40
2022-07-29T15:41:51.079Z,27.20
2022-07-29T15:44:19.421Z,27.20
2022-07-29T15:47:08.182Z,27.10
2022-07-29T15:49:47.607Z,27.10
2022-07-29T15:52:19.047Z,27.20
2022-07-29T15:54:53.016Z,27.40
2022-07-29T15:57:22.693Z,27.20
2022-07-29T15:59:50.911Z,27.20
2022-07-29T16:02:19.000Z,27.10
2022-07-29T16:04:47.310Z,26.90
2022-07-29T16:07:15.714Z,26.80
2022-07-29T16:09:44.857Z,26.80
2022-07-29T16:12:17.548Z,26.70
2022-07-29T16:14:49.403Z,26.50
2022-07-29T16:17:17.897Z,26.40
2022-07-29T16:19:46.547Z,26.30
2022-07-29T16:22:15.089Z,26.10
2022-07-29T16:24:43.301Z,26.10
2022-07-29T16:27:11.362Z,26.00
2022-07-29T16:29:39.612Z,25.90
2022-07-29T16:32:09.202Z,25.80
2022-07-29T16:34:37.263Z,25.80
2022-07-29T16:37:05.861Z,25.80
2022-07-29T16:39:34.058Z,25.80
2022-07-29T16:42:05.086Z,25.70
2022-07-29T16:44:34.865Z,25.60
2022-07-29T16:47:04.264Z,25.50
2022-07-29T16:49:33.886Z,25.50
2022-07-29T16:52:02.042Z,25.50
2022-07-29T16:54:30.151Z,25.50
2022-07-29T16:57:00.771Z,25.30
2022-07-29T16:59:29.595Z,25.30
2022-07-29T17:01:57.927Z,25.20
2022-07-29T17:04:27.502Z,25.20
2022-07-29T17:06:57.286Z,25.10
2022-07-29T17:09:25.751Z,25.00
2022-07-29T17:11:55.055Z,24.90
2022-07-29T17:14:24.992Z,24.60
2022-07-29T17:17:01.281Z,24.40
2022-07-29T17:19:33.663Z,24.20
2022-07-29T17:22:15.562Z,24.00
2022-07-29T17:24:47.262Z,23.90
2022-07-29T17:27:15.756Z,23.70
2022-07-29T17:29:44.230Z,23.70
2022-07-29T17:32:12.759Z,23.50
2022-07-29T17:34:42.716Z,23.50
2022-07-29T17:37:15.014Z,23.40
2022-07-29T17:39:43.974Z,23.30
2022-07-29T17:42:13.916Z,23.20
2022-07-29T17:44:42.458Z,23.20
2022-07-29T17:47:16.500Z,23.10
2022-07-29T17:49:45.115Z,23.10
2022-07-29T17:52:15.883Z,23.10
2022-07-29T17:54:44.004Z,22.90
2022-07-29T17:57:12.057Z,22.90
2022-07-29T17:59:40.128Z,22.80
2022-07-29T18:02:09.997Z,22.70
2022-07-29T18:04:38.124Z,22.60
2022-07-29T18:07:06.217Z,22.50
2022-07-29T18:09:35.650Z,22.40
2022-07-29T18:12:03.669Z,22.40
2022-07-29T18:14:31.716Z,22.30
2022-07-29T18:17:00.251Z,22.30
2022-07-29T18:19:29.679Z,22.30
2022-07-29T18:22:03.179Z,22.20
2022-07-29T18:24:33.288Z,22.20
2022-07-29T18:27:02.935Z,22.20
2022-07-29T18:29:31.056Z,22.10
2022-07-29T18:31:59.920Z,22.10
2022-07-29T18:34:28.177Z,22.10
2022-07-29T18:36:56.423Z,22.10
2022-07-29T18:39:24.733Z,22.10
2022-07-29T18:41:52.837Z,22.10
2022-07-29T18:44:23.031Z,22.10
2022-07-29T18:46:52.179Z,22.10
2022-07-29T18:49:21.535Z,22.00
2022-07-29T18:51:50.002Z,21.90
2022-07-29T18:54:18.497Z,21.90
2022-07-29T18:56:46.869Z,21.80
2022-07-29T18:59:16.920Z,21.80
2022-07-29T19:01:46.671Z,21.70
2022-07-29T19:04:14.780Z,21.70
2022-07-29T19:06:43.083Z,21.60
2022-07-29T19:09:11.592Z,21.60
2022-07-29T19:11:39.897Z,21.50
2022-07-29T19:14:08.690Z,21.50
2022-07-29T19:16:36.741Z,21.40
2022-07-29T19:19:07.264Z,21.40
2022-07-29T19:21:35.921Z,21.30
2022-07-29T19:24:07.825Z,21.20
2022-07-29T19:26:43.875Z,21.20
2022-07-29T19:29:11.901Z,21.10
2022-07-29T19:31:40.081Z,21.10
2022-07-29T19:34:09.742Z,21.00
2022-07-29T19:36:38.734Z,21.00
2022-07-29T19:39:07.098Z,21.00
2022-07-29T19:41:35.444Z,21.10
2022-07-29T19:44:03.672Z,21.00
2022-07-29T19:46:31.845Z,21.10
2022-07-29T19:49:00.022Z,21.00
2022-07-29T19:51:29.697Z,21.00
2022-07-29T19:53:57.867Z,20.90
2022-07-29T19:56:27.368Z,20.80
2022-07-29T19:58:56.734Z,20.80
2022-07-29T20:01:25.713Z,20.70
2022-07-29T20:03:53.932Z,20.70
2022-07-29T20:06:23.097Z,20.70
2022-07-29T20:08:55.473Z,20.60
2022-07-29T20:11:27.317Z,20.50
2022-07-29T20:13:55.443Z,20.40
2022-07-29T20:16:23.542Z,20.30
2022-07-29T20:18:53.691Z,20.20
2022-07-29T20:21:21.810Z,20.10
2022-07-29T20:23:49.977Z,20.00
2022-07-29T20:26:22.048Z,19.80
2022-07-29T20:28:50.173Z,19.60
2022-07-29T20:31:18.900Z,19.40
2022-07-29T20:33:47.224Z,19.20
2022-07-29T20:36:15.774Z,19.00
2022-07-29T20:38:43.872Z,18.90
2022-07-29T20:41:12.125Z,18.80
2022-07-29T20:43:41.901Z,18.60
2022-07-29T20:46:10.142Z,18.50
2022-07-29T20:48:39.809Z,18.40
2022-07-29T20:51:08.413Z,18.30
2022-07-29T20:53:38.369Z,18.20
2022-07-29T20:56:07.713Z,18.10
2022-07-29T20:58:36.511Z,18.00
2022-07-29T21:01:06.600Z,18.00
2022-07-29T21:03:34.879Z,17.90
2022-07-29T21:06:04.314Z,17.80
2022-07-29T21:08:32.437Z,17.80
2022-07-29T21:11:00.555Z,17.80
2022-07-29T21:13:28.953Z,17.70
2022-07-29T21:16:01.512Z,17.70
2022-07-29T21:18:36.775Z,17.60
2022-07-29T21:21:06.009Z,17.50
2022-07-29T21:23:34.171Z,17.50
2022-07-29T21:26:02.388Z,17.40
2022-07-29T21:28:34.832Z,17.40
2022-07-29T21:31:05.987Z,17.40
2022-07-29T21:33:36.268Z,17.30
2022-07-29T21:36:27.069Z,17.30
2022-07-29T21:38:53.558Z,17.30
2022-07-29T21:41:22.414Z,17.30
2022-07-29T21:43:50.518Z,17.30
2022-07-29T21:46:20.619Z,17.30
2022-07-29T21:48:53.914Z,17.30
2022-07-29T21:51:22.085Z,17.30
2022-07-29T21:53:50.638Z,17.30
2022-07-29T21:56:21.320Z,17.20
2022-07-29T21:58:52.609Z,17.20
2022-07-29T22:01:20.804Z,17.20
2022-07-29T22:03:48.915Z,17.10
2022-07-29T22:06:18.652Z,17.10
2022-07-29T22:08:47.883Z,17.10
2022-07-29T22:11:16.153Z,17.10
2022-07-29T22:13:44.249Z,17.00
2022-07-29T22:16:14.866Z,17.00
2022-07-29T22:18:45.043Z,17.00
2022-07-29T22:21:13.201Z,16.90
2022-07-29T22:23:42.780Z,16.90
2022-07-29T22:26:11.075Z,16.90
2022-07-29T22:28:39.131Z,16.90
2022-07-29T22:31:08.858Z,16.90
2022-07-29T22:33:37.138Z,16.70
2022-07-29T22:36:05.641Z,16.90
2022-07-29T22:38:33.911Z,16.90
2022-07-29T22:41:03.544Z,16.90
2022-07-29T22:43:31.626Z,16.90
2022-07-29T22:45:59.800Z,16.90
2022-07-29T22:48:28.450Z,16.90
2022-07-29T22:50:56.581Z,16.90
2022-07-29T22:53:24.613Z,16.90
2022-07-29T22:55:54.469Z,16.90
2022-07-29T22:58:23.900Z,16.90
2022-07-29T23:00:52.119Z,16.90
2022-07-29T23:03:20.469Z,16.90
2022-07-29T23:05:49.209Z,16.90
2022-07-29T23:08:17.335Z,16.80
2022-07-29T23:10:45.518Z,16.80
2022-07-29T23:13:13.580Z,16.80
2022-07-29T23:15:43.099Z,16.80
2022-07-29T23:18:11.153Z,16.80
2022-07-29T23:20:39.844Z,16.80
2022-07-29T23:23:07.949Z,16.80
2022-07-29T23:25:36.029Z,16.80
2022-07-29T23:28:05.107Z,16.80
2022-07-29T23:30:33.562Z,16.80
2022-07-29T23:33:03.182Z,16.80
2022-07-29T23:35:31.900Z,16.90
2022-07-29T23:38:00.190Z,16.90
2022-07-29T23:40:28.849Z,16.90
2022-07-29T23:42:57.107Z,16.90
2022-07-29T23:45:42.657Z,16.90
2022-07-29T23:48:15.100Z,16.90
2022-07-29T23:50:43.323Z,16.90
2022-07-29T23:53:12.194Z,16.90
2022-07-29T23:55:40.360Z,16.90
2022-07-29T23:58:08.580Z,16.90
